sensor_id;sensor_type;location;lat;lon;timestamp;temperature;humidity
32201;DHT22;18701;45.588;5.288;2023-10-13T00:00:09;20.40;99.90
32201;DHT22;18701;45.588;5.288;2023-10-13T00:02:51;20.10;99.90
32201;DHT22;18701;45.588;5.288;2023-10-13T00:05:18;20.10;99.90
32201;DHT22;18701;45.588;5.288;2023-10-13T00:07:44;20.40;99.90
32201;DHT22;18701;45.588;5.288;2023-10-13T00:10:10;19.90;99.90
32201;DHT22;18701;45.588;5.288;2023-10-13T00:12:36;20.00;99.90
32201;DHT22;18701;45.588;5.288;2023-10-13T00:15:04;20.10;99.90
32201;DHT22;18701;45.588;5.288;2023-10-13T00:17:32;20.30;99.90
32201;DHT22;18701;45.588;5.288;2023-10-13T00:19:58;20.50;99.90
32201;DHT22;18701;45.588;5.288;2023-10-13T00:22:26;20.70;99.90
32201;DHT22;18701;45.588;5.288;2023-10-13T00:24:56;20.40;99.90
32201;DHT22;18701;45.588;5.288;2023-10-13T00:27:24;20.30;99.90
32201;DHT22;18701;45.588;5.288;2023-10-13T00:29:56;20.10;99.90
32201;DHT22;18701;45.588;5.288;2023-10-13T00:32:44;20.20;99.90
32201;DHT22;18701;45.588;5.288;2023-10-13T00:35:17;20.40;99.90
32201;DHT22;18701;45.588;5.288;2023-10-13T00:37:56;20.40;99.90
32201;DHT22;18701;45.588;5.288;2023-10-13T00:40:25;20.70;99.90
32201;DHT22;18701;45.588;5.288;2023-10-13T00:42:57;20.40;99.90
32201;DHT22;18701;45.588;5.288;2023-10-13T00:45:54;20.50;99.90
32201;DHT22;18701;45.588;5.288;2023-10-13T00:48:25;20.60;99.90
32201;DHT22;18701;45.588;5.288;2023-10-13T00:50:58;20.60;99.90
32201;DHT22;18701;45.588;5.288;2023-10-13T00:53:28;20.70;99.90
32201;DHT22;18701;45.588;5.288;2023-10-13T00:55:55;20.90;99.90
32201;DHT22;18701;45.588;5.288;2023-10-13T00:58:32;20.90;99.90
32201;DHT22;18701;45.588;5.288;2023-10-13T01:01:02;20.60;99.90
32201;DHT22;18701;45.588;5.288;2023-10-13T01:03:48;20.80;99.90
32201;DHT22;18701;45.588;5.288;2023-10-13T01:06:17;20.60;99.90
32201;DHT22;18701;45.588;5.288;2023-10-13T01:08:48;20.50;99.90
32201;DHT22;18701;45.588;5.288;2023-10-13T01:11:18;20.60;99.90
32201;DHT22;18701;45.588;5.288;2023-10-13T01:13:44;20.70;99.90
32201;DHT22;18701;45.588;5.288;2023-10-13T01:16:09;20.80;99.90
32201;DHT22;18701;45.588;5.288;2023-10-13T01:18:36;20.60;99.90
32201;DHT22;18701;45.588;5.288;2023-10-13T01:21:15;20.50;99.90
32201;DHT22;18701;45.588;5.288;2023-10-13T01:23:45;20.50;99.90
32201;DHT22;18701;45.588;5.288;2023-10-13T01:26:13;20.50;99.90
32201;DHT22;18701;45.588;5.288;2023-10-13T01:28:43;20.70;99.90
32201;DHT22;18701;45.588;5.288;2023-10-13T01:31:12;20.70;99.90
32201;DHT22;18701;45.588;5.288;2023-10-13T01:33:58;20.60;99.90
32201;DHT22;18701;45.588;5.288;2023-10-13T01:36:27;20.50;99.90
32201;DHT22;18701;45.588;5.288;2023-10-13T01:38:53;20.40;99.90
32201;DHT22;18701;45.588;5.288;2023-10-13T01:41:20;20.30;99.90
32201;DHT22;18701;45.588;5.288;2023-10-13T01:43:46;20.20;99.90
32201;DHT22;18701;45.588;5.288;2023-10-13T01:46:12;20.30;99.90
32201;DHT22;18701;45.588;5.288;2023-10-13T01:48:42;20.30;99.90
32201;DHT22;18701;45.588;5.288;2023-10-13T01:51:09;20.10;99.90
32201;DHT22;18701;45.588;5.288;2023-10-13T01:53:36;20.30;99.90
32201;DHT22;18701;45.588;5.288;2023-10-13T01:56:03;20.10;99.90
32201;DHT22;18701;45.588;5.288;2023-10-13T01:58:31;20.20;99.90
32201;DHT22;18701;45.588;5.288;2023-10-13T02:00:57;20.00;99.90
32201;DHT22;18701;45.588;5.288;2023-10-13T02:03:25;19.90;99.90
32201;DHT22;18701;45.588;5.288;2023-10-13T02:05:55;20.10;99.90
32201;DHT22;18701;45.588;5.288;2023-10-13T02:08:24;20.10;99.90
32201;DHT22;18701;45.588;5.288;2023-10-13T02:10:55;20.20;99.90
32201;DHT22;18701;45.588;5.288;2023-10-13T02:13:22;20.20;99.90
32201;DHT22;18701;45.588;5.288;2023-10-13T02:15:49;20.00;99.90
32201;DHT22;18701;45.588;5.288;2023-10-13T02:18:18;20.20;99.90
32201;DHT22;18701;45.588;5.288;2023-10-13T02:20:54;20.20;99.90
32201;DHT22;18701;45.588;5.288;2023-10-13T02:23:24;20.20;99.90
32201;DHT22;18701;45.588;5.288;2023-10-13T02:25:56;20.10;99.90
32201;DHT22;18701;45.588;5.288;2023-10-13T02:28:51;19.90;99.90
32201;DHT22;18701;45.588;5.288;2023-10-13T02:31:17;20.00;99.90
32201;DHT22;18701;45.588;5.288;2023-10-13T02:33:45;19.80;99.90
32201;DHT22;18701;45.588;5.288;2023-10-13T02:36:11;19.90;99.90
32201;DHT22;18701;45.588;5.288;2023-10-13T02:38:47;19.90;99.90
32201;DHT22;18701;45.588;5.288;2023-10-13T02:41:14;19.90;99.90
32201;DHT22;18701;45.588;5.288;2023-10-13T02:43:51;19.80;99.90
32201;DHT22;18701;45.588;5.288;2023-10-13T02:46:18;19.70;99.90
32201;DHT22;18701;45.588;5.288;2023-10-13T02:48:47;19.90;99.90
32201;DHT22;18701;45.588;5.288;2023-10-13T02:51:19;19.80;99.90
32201;DHT22;18701;45.588;5.288;2023-10-13T02:53:51;19.90;99.90
32201;DHT22;18701;45.588;5.288;2023-10-13T02:56:18;20.00;99.90
32201;DHT22;18701;45.588;5.288;2023-10-13T02:58:48;20.00;99.90
32201;DHT22;18701;45.588;5.288;2023-10-13T03:01:19;19.90;99.90
32201;DHT22;18701;45.588;5.288;2023-10-13T03:03:53;19.70;99.90
32201;DHT22;18701;45.588;5.288;2023-10-13T03:06:24;19.80;99.90
32201;DHT22;18701;45.588;5.288;2023-10-13T03:09:01;19.60;99.90
32201;DHT22;18701;45.588;5.288;2023-10-13T03:11:40;19.90;99.90
32201;DHT22;18701;45.588;5.288;2023-10-13T03:14:09;19.70;99.90
32201;DHT22;18701;45.588;5.288;2023-10-13T03:16:45;19.90;99.90
32201;DHT22;18701;45.588;5.288;2023-10-13T03:19:11;19.50;99.90
32201;DHT22;18701;45.588;5.288;2023-10-13T03:21:36;19.70;99.90
32201;DHT22;18701;45.588;5.288;2023-10-13T03:24:02;19.70;99.90
32201;DHT22;18701;45.588;5.288;2023-10-13T03:26:33;19.50;99.90
32201;DHT22;18701;45.588;5.288;2023-10-13T03:29:03;19.60;99.90
32201;DHT22;18701;45.588;5.288;2023-10-13T03:31:32;19.40;99.90
32201;DHT22;18701;45.588;5.288;2023-10-13T03:34:04;19.50;99.90
32201;DHT22;18701;45.588;5.288;2023-10-13T03:36:30;19.50;99.90
32201;DHT22;18701;45.588;5.288;2023-10-13T03:39:21;19.60;99.90
32201;DHT22;18701;45.588;5.288;2023-10-13T03:41:53;19.60;99.90
32201;DHT22;18701;45.588;5.288;2023-10-13T03:44:19;19.60;99.90
32201;DHT22;18701;45.588;5.288;2023-10-13T03:46:46;19.70;99.90
32201;DHT22;18701;45.588;5.288;2023-10-13T03:49:16;19.60;99.90
32201;DHT22;18701;45.588;5.288;2023-10-13T03:51:47;19.50;99.90
32201;DHT22;18701;45.588;5.288;2023-10-13T03:54:14;19.50;99.90
32201;DHT22;18701;45.588;5.288;2023-10-13T03:56:42;19.60;99.90
32201;DHT22;18701;45.588;5.288;2023-10-13T03:59:10;19.60;99.90
32201;DHT22;18701;45.588;5.288;2023-10-13T04:01:44;19.60;99.90
32201;DHT22;18701;45.588;5.288;2023-10-13T04:04:11;19.50;99.90
32201;DHT22;18701;45.588;5.288;2023-10-13T04:06:38;19.40;99.90
32201;DHT22;18701;45.588;5.288;2023-10-13T04:09:17;19.50;99.90
32201;DHT22;18701;45.588;5.288;2023-10-13T04:14:36;19.40;99.90
32201;DHT22;18701;45.588;5.288;2023-10-13T04:17:11;19.40;99.90
32201;DHT22;18701;45.588;5.288;2023-10-13T04:19:43;19.40;99.90
32201;DHT22;18701;45.588;5.288;2023-10-13T04:22:27;19.30;99.90
32201;DHT22;18701;45.588;5.288;2023-10-13T04:25:27;19.40;99.90
32201;DHT22;18701;45.588;5.288;2023-10-13T04:28:10;19.60;99.90
32201;DHT22;18701;45.588;5.288;2023-10-13T04:30:43;19.40;99.90
32201;DHT22;18701;45.588;5.288;2023-10-13T04:33:31;19.50;99.90
32201;DHT22;18701;45.588;5.288;2023-10-13T04:36:12;19.60;99.90
32201;DHT22;18701;45.588;5.288;2023-10-13T04:38:49;19.60;99.90
32201;DHT22;18701;45.588;5.288;2023-10-13T04:41:37;19.70;99.90
32201;DHT22;18701;45.588;5.288;2023-10-13T04:44:05;19.60;99.90
32201;DHT22;18701;45.588;5.288;2023-10-13T04:46:52;19.70;99.90
32201;DHT22;18701;45.588;5.288;2023-10-13T04:49:21;19.50;99.90
32201;DHT22;18701;45.588;5.288;2023-10-13T04:52:06;19.40;99.90
32201;DHT22;18701;45.588;5.288;2023-10-13T04:54:36;19.40;99.90
32201;DHT22;18701;45.588;5.288;2023-10-13T04:57:22;19.20;99.90
32201;DHT22;18701;45.588;5.288;2023-10-13T04:59:51;19.30;99.90
32201;DHT22;18701;45.588;5.288;2023-10-13T05:02:29;19.20;99.90
32201;DHT22;18701;45.588;5.288;2023-10-13T05:05:08;19.20;99.90
32201;DHT22;18701;45.588;5.288;2023-10-13T05:07:47;19.20;99.90
32201;DHT22;18701;45.588;5.288;2023-10-13T05:10:33;19.20;99.90
32201;DHT22;18701;45.588;5.288;2023-10-13T05:13:18;19.10;99.90
32201;DHT22;18701;45.588;5.288;2023-10-13T05:16:02;19.10;99.90
32201;DHT22;18701;45.588;5.288;2023-10-13T05:18:46;19.10;99.90
32201;DHT22;18701;45.588;5.288;2023-10-13T05:21:30;19.10;99.90
32201;DHT22;18701;45.588;5.288;2023-10-13T05:24:14;19.00;99.90
32201;DHT22;18701;45.588;5.288;2023-10-13T05:26:58;19.00;99.90
32201;DHT22;18701;45.588;5.288;2023-10-13T05:29:45;19.00;99.90
32201;DHT22;18701;45.588;5.288;2023-10-13T05:32:29;18.90;99.90
32201;DHT22;18701;45.588;5.288;2023-10-13T05:35:14;19.00;99.90
32201;DHT22;18701;45.588;5.288;2023-10-13T05:37:58;19.10;99.90
32201;DHT22;18701;45.588;5.288;2023-10-13T05:40:59;19.00;99.90
32201;DHT22;18701;45.588;5.288;2023-10-13T05:43:44;18.90;99.90
32201;DHT22;18701;45.588;5.288;2023-10-13T05:46:29;19.00;99.90
32201;DHT22;18701;45.588;5.288;2023-10-13T05:49:14;19.00;99.90
32201;DHT22;18701;45.588;5.288;2023-10-13T05:51:40;19.00;99.90
32201;DHT22;18701;45.588;5.288;2023-10-13T05:54:12;19.00;99.90
32201;DHT22;18701;45.588;5.288;2023-10-13T05:56:45;18.90;99.90
32201;DHT22;18701;45.588;5.288;2023-10-13T05:59:31;19.00;99.90
32201;DHT22;18701;45.588;5.288;2023-10-13T06:02:20;19.00;99.90
32201;DHT22;18701;45.588;5.288;2023-10-13T06:05:06;19.00;99.90
32201;DHT22;18701;45.588;5.288;2023-10-13T06:07:51;19.00;99.90
32201;DHT22;18701;45.588;5.288;2023-10-13T06:10:36;18.90;99.90
32201;DHT22;18701;45.588;5.288;2023-10-13T06:13:20;18.80;99.90
32201;DHT22;18701;45.588;5.288;2023-10-13T06:16:09;19.00;99.90
32201;DHT22;18701;45.588;5.288;2023-10-13T06:18:53;19.00;99.90
32201;DHT22;18701;45.588;5.288;2023-10-13T06:21:38;18.80;99.90
32201;DHT22;18701;45.588;5.288;2023-10-13T06:24:22;18.90;99.90
32201;DHT22;18701;45.588;5.288;2023-10-13T06:27:06;18.90;99.90
32201;DHT22;18701;45.588;5.288;2023-10-13T06:29:50;18.80;99.90
32201;DHT22;18701;45.588;5.288;2023-10-13T06:32:15;18.90;99.90
32201;DHT22;18701;45.588;5.288;2023-10-13T06:34:45;18.90;99.90
32201;DHT22;18701;45.588;5.288;2023-10-13T06:37:19;18.90;99.90
32201;DHT22;18701;45.588;5.288;2023-10-13T06:40:11;18.90;99.90
32201;DHT22;18701;45.588;5.288;2023-10-13T06:42:52;18.90;99.90
32201;DHT22;18701;45.588;5.288;2023-10-13T06:45:19;19.00;99.90
32201;DHT22;18701;45.588;5.288;2023-10-13T06:47:46;19.00;99.90
32201;DHT22;18701;45.588;5.288;2023-10-13T06:50:14;19.00;99.90
32201;DHT22;18701;45.588;5.288;2023-10-13T06:52:46;18.90;99.90
32201;DHT22;18701;45.588;5.288;2023-10-13T06:55:15;19.00;99.90
32201;DHT22;18701;45.588;5.288;2023-10-13T06:57:49;19.00;99.90
32201;DHT22;18701;45.588;5.288;2023-10-13T07:00:15;19.00;99.90
32201;DHT22;18701;45.588;5.288;2023-10-13T07:02:56;19.00;99.90
32201;DHT22;18701;45.588;5.288;2023-10-13T07:05:40;19.10;99.90
32201;DHT22;18701;45.588;5.288;2023-10-13T07:08:09;19.00;99.90
32201;DHT22;18701;45.588;5.288;2023-10-13T07:10:35;19.10;99.90
32201;DHT22;18701;45.588;5.288;2023-10-13T07:13:13;19.10;99.90
32201;DHT22;18701;45.588;5.288;2023-10-13T07:15:40;19.10;99.90
32201;DHT22;18701;45.588;5.288;2023-10-13T07:18:14;19.20;99.90
32201;DHT22;18701;45.588;5.288;2023-10-13T07:20:42;19.20;99.90
32201;DHT22;18701;45.588;5.288;2023-10-13T07:23:12;19.20;99.90
32201;DHT22;18701;45.588;5.288;2023-10-13T07:25:50;19.20;99.90
32201;DHT22;18701;45.588;5.288;2023-10-13T07:28:16;19.30;99.90
32201;DHT22;18701;45.588;5.288;2023-10-13T07:30:42;19.30;99.90
32201;DHT22;18701;45.588;5.288;2023-10-13T07:33:16;19.30;99.90
32201;DHT22;18701;45.588;5.288;2023-10-13T07:35:46;19.40;99.90
32201;DHT22;18701;45.588;5.288;2023-10-13T07:38:16;19.40;99.90
32201;DHT22;18701;45.588;5.288;2023-10-13T07:40:42;19.30;99.90
32201;DHT22;18701;45.588;5.288;2023-10-13T07:43:16;19.30;99.90
32201;DHT22;18701;45.588;5.288;2023-10-13T07:45:46;19.30;99.90
32201;DHT22;18701;45.588;5.288;2023-10-13T07:48:16;19.50;99.90
32201;DHT22;18701;45.588;5.288;2023-10-13T07:50:58;19.60;99.90
32201;DHT22;18701;45.588;5.288;2023-10-13T07:53:26;19.60;99.90
32201;DHT22;18701;45.588;5.288;2023-10-13T07:55:53;19.70;99.90
32201;DHT22;18701;45.588;5.288;2023-10-13T07:58:21;19.70;99.90
32201;DHT22;18701;45.588;5.288;2023-10-13T08:00:50;19.80;99.90
32201;DHT22;18701;45.588;5.288;2023-10-13T08:03:20;19.90;99.90
32201;DHT22;18701;45.588;5.288;2023-10-13T08:06:02;20.10;99.90
32201;DHT22;18701;45.588;5.288;2023-10-13T08:08:32;20.10;99.90
32201;DHT22;18701;45.588;5.288;2023-10-13T08:11:14;20.20;99.90
32201;DHT22;18701;45.588;5.288;2023-10-13T08:13:51;20.20;99.90
32201;DHT22;18701;45.588;5.288;2023-10-13T08:16:22;20.20;99.90
32201;DHT22;18701;45.588;5.288;2023-10-13T08:18:52;20.40;99.90
32201;DHT22;18701;45.588;5.288;2023-10-13T08:21:18;20.30;99.90
32201;DHT22;18701;45.588;5.288;2023-10-13T08:23:51;20.40;99.90
32201;DHT22;18701;45.588;5.288;2023-10-13T08:26:20;20.60;99.90
32201;DHT22;18701;45.588;5.288;2023-10-13T08:29:04;20.70;99.90
32201;DHT22;18701;45.588;5.288;2023-10-13T08:31:56;20.70;99.90
32201;DHT22;18701;45.588;5.288;2023-10-13T08:34:47;20.70;99.90
32201;DHT22;18701;45.588;5.288;2023-10-13T08:37:13;20.70;99.90
32201;DHT22;18701;45.588;5.288;2023-10-13T08:39:58;20.70;99.90
32201;DHT22;18701;45.588;5.288;2023-10-13T08:47:54;21.10;99.90
32201;DHT22;18701;45.588;5.288;2023-10-13T08:50:34;21.10;99.90
32201;DHT22;18701;45.588;5.288;2023-10-13T08:53:31;21.40;99.90
32201;DHT22;18701;45.588;5.288;2023-10-13T08:56:10;21.60;99.90
32201;DHT22;18701;45.588;5.288;2023-10-13T08:58:39;21.70;99.90
32201;DHT22;18701;45.588;5.288;2023-10-13T09:01:31;21.70;99.90
32201;DHT22;18701;45.588;5.288;2023-10-13T09:04:12;21.90;99.90
32201;DHT22;18701;45.588;5.288;2023-10-13T09:06:45;21.70;99.90
32201;DHT22;18701;45.588;5.288;2023-10-13T09:09:31;21.80;99.90
32201;DHT22;18701;45.588;5.288;2023-10-13T09:12:22;22.10;99.90
32201;DHT22;18701;45.588;5.288;2023-10-13T09:15:08;22.10;99.90
32201;DHT22;18701;45.588;5.288;2023-10-13T09:17:45;22.20;99.90
32201;DHT22;18701;45.588;5.288;2023-10-13T09:20:14;22.20;99.90
32201;DHT22;18701;45.588;5.288;2023-10-13T09:22:55;22.40;99.90
32201;DHT22;18701;45.588;5.288;2023-10-13T09:25:28;22.50;99.90
32201;DHT22;18701;45.588;5.288;2023-10-13T09:30:50;22.70;99.90
32201;DHT22;18701;45.588;5.288;2023-10-13T09:33:22;22.50;99.90
32201;DHT22;18701;45.588;5.288;2023-10-13T09:36:01;22.70;99.90
32201;DHT22;18701;45.588;5.288;2023-10-13T09:38:35;22.90;99.90
32201;DHT22;18701;45.588;5.288;2023-10-13T09:41:27;23.10;99.90
32201;DHT22;18701;45.588;5.288;2023-10-13T09:43:57;23.30;99.90
32201;DHT22;18701;45.588;5.288;2023-10-13T09:46:26;23.50;99.90
32201;DHT22;18701;45.588;5.288;2023-10-13T09:49:05;23.40;99.90
32201;DHT22;18701;45.588;5.288;2023-10-13T09:51:40;23.30;99.90
32201;DHT22;18701;45.588;5.288;2023-10-13T09:54:31;23.40;99.90
32201;DHT22;18701;45.588;5.288;2023-10-13T09:57:08;23.10;99.90
32201;DHT22;18701;45.588;5.288;2023-10-13T09:59:50;23.10;99.90
32201;DHT22;18701;45.588;5.288;2023-10-13T10:02:18;23.00;99.90
32201;DHT22;18701;45.588;5.288;2023-10-13T10:04:54;23.10;99.90
32201;DHT22;18701;45.588;5.288;2023-10-13T10:07:28;22.90;99.90
32201;DHT22;18701;45.588;5.288;2023-10-13T10:10:01;23.00;99.90
32201;DHT22;18701;45.588;5.288;2023-10-13T10:17:53;23.40;99.90
32201;DHT22;18701;45.588;5.288;2023-10-13T10:20:28;23.10;99.90
32201;DHT22;18701;45.588;5.288;2023-10-13T10:23:05;23.40;99.90
32201;DHT22;18701;45.588;5.288;2023-10-13T10:25:36;23.40;99.90
32201;DHT22;18701;45.588;5.288;2023-10-13T10:28:04;23.50;99.90
32201;DHT22;18701;45.588;5.288;2023-10-13T10:30:36;23.20;99.90
32201;DHT22;18701;45.588;5.288;2023-10-13T10:33:05;23.60;99.90
32201;DHT22;18701;45.588;5.288;2023-10-13T10:36:00;23.70;99.90
32201;DHT22;18701;45.588;5.288;2023-10-13T10:38:25;24.00;99.90
32201;DHT22;18701;45.588;5.288;2023-10-13T10:41:01;24.00;99.90
32201;DHT22;18701;45.588;5.288;2023-10-13T10:46:28;24.40;99.90
32201;DHT22;18701;45.588;5.288;2023-10-13T10:49:04;24.50;99.90
32201;DHT22;18701;45.588;5.288;2023-10-13T10:51:36;24.00;99.90
32201;DHT22;18701;45.588;5.288;2023-10-13T10:54:18;24.70;99.90
32201;DHT22;18701;45.588;5.288;2023-10-13T10:56:43;24.50;99.90
32201;DHT22;18701;45.588;5.288;2023-10-13T10:59:09;24.70;99.90
32201;DHT22;18701;45.588;5.288;2023-10-13T11:01:46;24.90;99.90
32201;DHT22;18701;45.588;5.288;2023-10-13T11:04:18;25.60;99.90
32201;DHT22;18701;45.588;5.288;2023-10-13T11:09:13;29.80;99.90
32201;DHT22;18701;45.588;5.288;2023-10-13T11:11:56;30.70;99.20
32201;DHT22;18701;45.588;5.288;2023-10-13T11:14:24;31.80;97.60
32201;DHT22;18701;45.588;5.288;2023-10-13T11:16:50;28.50;98.60
32201;DHT22;18701;45.588;5.288;2023-10-13T11:19:17;27.80;99.70
32201;DHT22;18701;45.588;5.288;2023-10-13T11:21:46;27.70;99.90
32201;DHT22;18701;45.588;5.288;2023-10-13T11:24:13;26.80;99.90
32201;DHT22;18701;45.588;5.288;2023-10-13T11:26:38;27.10;99.90
32201;DHT22;18701;45.588;5.288;2023-10-13T11:29:15;26.40;99.90
32201;DHT22;18701;45.588;5.288;2023-10-13T11:31:47;27.00;99.90
32201;DHT22;18701;45.588;5.288;2023-10-13T11:34:23;26.90;99.90
32201;DHT22;18701;45.588;5.288;2023-10-13T11:36:48;27.00;99.90
32201;DHT22;18701;45.588;5.288;2023-10-13T11:39:14;27.20;99.90
32201;DHT22;18701;45.588;5.288;2023-10-13T11:41:47;27.50;99.90
32201;DHT22;18701;45.588;5.288;2023-10-13T11:44:20;27.10;99.90
32201;DHT22;18701;45.588;5.288;2023-10-13T11:46:45;27.10;99.90
32201;DHT22;18701;45.588;5.288;2023-10-13T11:49:14;27.10;99.80
32201;DHT22;18701;45.588;5.288;2023-10-13T11:51:47;27.80;99.40
32201;DHT22;18701;45.588;5.288;2023-10-13T11:54:14;28.90;99.50
32201;DHT22;18701;45.588;5.288;2023-10-13T11:56:44;28.40;99.30
32201;DHT22;18701;45.588;5.288;2023-10-13T11:59:10;28.20;98.70
32201;DHT22;18701;45.588;5.288;2023-10-13T12:01:49;29.50;98.70
32201;DHT22;18701;45.588;5.288;2023-10-13T12:04:33;29.50;98.40
32201;DHT22;18701;45.588;5.288;2023-10-13T12:07:19;30.30;97.60
32201;DHT22;18701;45.588;5.288;2023-10-13T12:10:11;29.00;97.10
32201;DHT22;18701;45.588;5.288;2023-10-13T12:13:00;31.50;96.80
32201;DHT22;18701;45.588;5.288;2023-10-13T12:15:32;33.00;95.10
32201;DHT22;18701;45.588;5.288;2023-10-13T12:18:18;32.20;93.90
32201;DHT22;18701;45.588;5.288;2023-10-13T12:20:44;32.50;94.20
32201;DHT22;18701;45.588;5.288;2023-10-13T12:23:14;32.00;94.00
32201;DHT22;18701;45.588;5.288;2023-10-13T12:25:45;32.90;93.10
32201;DHT22;18701;45.588;5.288;2023-10-13T12:28:21;34.10;92.30
32201;DHT22;18701;45.588;5.288;2023-10-13T12:30:49;32.70;92.90
32201;DHT22;18701;45.588;5.288;2023-10-13T12:33:15;33.40;92.30
32201;DHT22;18701;45.588;5.288;2023-10-13T12:35:56;33.10;91.50
32201;DHT22;18701;45.588;5.288;2023-10-13T12:38:52;33.60;92.10
32201;DHT22;18701;45.588;5.288;2023-10-13T12:41:38;35.90;90.40
32201;DHT22;18701;45.588;5.288;2023-10-13T12:44:23;35.00;90.10
32201;DHT22;18701;45.588;5.288;2023-10-13T12:47:08;34.80;88.90
32201;DHT22;18701;45.588;5.288;2023-10-13T12:49:52;34.10;89.70
32201;DHT22;18701;45.588;5.288;2023-10-13T12:52:23;35.60;87.30
32201;DHT22;18701;45.588;5.288;2023-10-13T12:54:53;36.40;84.60
32201;DHT22;18701;45.588;5.288;2023-10-13T12:57:31;36.50;83.80
32201;DHT22;18701;45.588;5.288;2023-10-13T12:59:57;35.10;84.00
32201;DHT22;18701;45.588;5.288;2023-10-13T13:02:25;33.80;85.90
32201;DHT22;18701;45.588;5.288;2023-10-13T13:04:54;33.30;87.20
32201;DHT22;18701;45.588;5.288;2023-10-13T13:07:23;33.70;85.30
32201;DHT22;18701;45.588;5.288;2023-10-13T13:09:54;33.70;85.00
32201;DHT22;18701;45.588;5.288;2023-10-13T13:12:24;33.20;86.40
32201;DHT22;18701;45.588;5.288;2023-10-13T13:14:50;32.50;87.00
32201;DHT22;18701;45.588;5.288;2023-10-13T13:17:23;33.40;85.50
32201;DHT22;18701;45.588;5.288;2023-10-13T13:19:49;35.10;84.50
32201;DHT22;18701;45.588;5.288;2023-10-13T13:22:14;33.30;85.60
32201;DHT22;18701;45.588;5.288;2023-10-13T13:24:42;34.20;85.00
32201;DHT22;18701;45.588;5.288;2023-10-13T13:27:13;35.80;83.00
32201;DHT22;18701;45.588;5.288;2023-10-13T13:29:42;34.40;84.00
32201;DHT22;18701;45.588;5.288;2023-10-13T13:32:08;36.40;81.80
32201;DHT22;18701;45.588;5.288;2023-10-13T13:34:43;34.80;82.60
32201;DHT22;18701;45.588;5.288;2023-10-13T13:37:09;33.50;82.90
32201;DHT22;18701;45.588;5.288;2023-10-13T13:39:38;35.20;82.90
32201;DHT22;18701;45.588;5.288;2023-10-13T13:42:09;33.70;84.80
32201;DHT22;18701;45.588;5.288;2023-10-13T13:44:35;33.20;85.30
32201;DHT22;18701;45.588;5.288;2023-10-13T13:47:03;32.50;86.10
32201;DHT22;18701;45.588;5.288;2023-10-13T13:49:38;33.70;84.30
32201;DHT22;18701;45.588;5.288;2023-10-13T13:52:12;34.20;84.40
32201;DHT22;18701;45.588;5.288;2023-10-13T13:54:43;34.90;83.10
32201;DHT22;18701;45.588;5.288;2023-10-13T13:57:09;34.10;82.40
32201;DHT22;18701;45.588;5.288;2023-10-13T13:59:36;33.80;83.60
32201;DHT22;18701;45.588;5.288;2023-10-13T14:02:02;33.40;83.30
32201;DHT22;18701;45.588;5.288;2023-10-13T14:04:46;32.40;82.60
32201;DHT22;18701;45.588;5.288;2023-10-13T14:07:13;33.90;82.20
32201;DHT22;18701;45.588;5.288;2023-10-13T14:09:40;34.70;80.80
32201;DHT22;18701;45.588;5.288;2023-10-13T14:12:09;34.70;80.30
32201;DHT22;18701;45.588;5.288;2023-10-13T14:14:54;34.70;81.10
32201;DHT22;18701;45.588;5.288;2023-10-13T14:17:23;34.00;81.10
32201;DHT22;18701;45.588;5.288;2023-10-13T14:19:56;34.40;80.40
32201;DHT22;18701;45.588;5.288;2023-10-13T14:22:22;34.90;80.00
32201;DHT22;18701;45.588;5.288;2023-10-13T14:24:51;34.90;79.90
32201;DHT22;18701;45.588;5.288;2023-10-13T14:27:20;34.80;80.20
32201;DHT22;18701;45.588;5.288;2023-10-13T14:29:49;36.20;78.20
32201;DHT22;18701;45.588;5.288;2023-10-13T14:32:19;33.90;80.90
32201;DHT22;18701;45.588;5.288;2023-10-13T14:34:46;33.80;81.30
32201;DHT22;18701;45.588;5.288;2023-10-13T14:37:20;35.30;79.40
32201;DHT22;18701;45.588;5.288;2023-10-13T14:39:55;35.50;77.90
32201;DHT22;18701;45.588;5.288;2023-10-13T14:42:24;35.80;77.60
32201;DHT22;18701;45.588;5.288;2023-10-13T14:44:50;35.10;78.70
32201;DHT22;18701;45.588;5.288;2023-10-13T14:47:22;34.00;79.70
32201;DHT22;18701;45.588;5.288;2023-10-13T14:49:53;34.30;79.70
32201;DHT22;18701;45.588;5.288;2023-10-13T14:52:29;34.90;78.60
32201;DHT22;18701;45.588;5.288;2023-10-13T14:54:58;33.60;80.10
32201;DHT22;18701;45.588;5.288;2023-10-13T14:57:24;32.30;81.20
32201;DHT22;18701;45.588;5.288;2023-10-13T14:59:56;32.20;81.40
32201;DHT22;18701;45.588;5.288;2023-10-13T15:02:23;32.90;80.80
32201;DHT22;18701;45.588;5.288;2023-10-13T15:04:49;34.60;79.40
32201;DHT22;18701;45.588;5.288;2023-10-13T15:07:15;34.40;78.00
32201;DHT22;18701;45.588;5.288;2023-10-13T15:09:43;34.40;78.30
32201;DHT22;18701;45.588;5.288;2023-10-13T15:12:09;34.40;79.30
32201;DHT22;18701;45.588;5.288;2023-10-13T15:14:37;33.70;79.60
32201;DHT22;18701;45.588;5.288;2023-10-13T15:17:05;33.60;79.90
32201;DHT22;18701;45.588;5.288;2023-10-13T15:19:32;33.90;78.90
32201;DHT22;18701;45.588;5.288;2023-10-13T15:22:02;31.90;81.40
32201;DHT22;18701;45.588;5.288;2023-10-13T15:24:32;30.70;83.20
32201;DHT22;18701;45.588;5.288;2023-10-13T15:27:01;29.10;86.20
32201;DHT22;18701;45.588;5.288;2023-10-13T15:29:27;28.50;87.80
32201;DHT22;18701;45.588;5.288;2023-10-13T15:32:01;27.90;89.00
32201;DHT22;18701;45.588;5.288;2023-10-13T15:34:29;27.90;89.80
32201;DHT22;18701;45.588;5.288;2023-10-13T15:36:56;28.10;89.40
32201;DHT22;18701;45.588;5.288;2023-10-13T15:39:23;28.80;89.80
32201;DHT22;18701;45.588;5.288;2023-10-13T15:41:52;30.20;87.80
32201;DHT22;18701;45.588;5.288;2023-10-13T15:44:21;31.20;86.50
32201;DHT22;18701;45.588;5.288;2023-10-13T15:46:52;30.80;86.50
32201;DHT22;18701;45.588;5.288;2023-10-13T15:49:18;31.20;86.90
32201;DHT22;18701;45.588;5.288;2023-10-13T15:51:44;31.70;85.60
32201;DHT22;18701;45.588;5.288;2023-10-13T15:54:10;31.20;85.20
32201;DHT22;18701;45.588;5.288;2023-10-13T15:56:47;30.40;87.00
32201;DHT22;18701;45.588;5.288;2023-10-13T15:59:13;30.30;87.40
32201;DHT22;18701;45.588;5.288;2023-10-13T16:01:39;30.00;88.00
32201;DHT22;18701;45.588;5.288;2023-10-13T16:04:09;30.40;87.70
32201;DHT22;18701;45.588;5.288;2023-10-13T16:06:43;30.60;87.20
32201;DHT22;18701;45.588;5.288;2023-10-13T16:09:18;29.60;89.00
32201;DHT22;18701;45.588;5.288;2023-10-13T16:11:51;28.80;90.00
32201;DHT22;18701;45.588;5.288;2023-10-13T16:14:17;27.80;91.00
32201;DHT22;18701;45.588;5.288;2023-10-13T16:16:45;27.10;91.70
32201;DHT22;18701;45.588;5.288;2023-10-13T16:19:15;27.00;92.20
32201;DHT22;18701;45.588;5.288;2023-10-13T16:21:49;26.90;92.40
32201;DHT22;18701;45.588;5.288;2023-10-13T16:24:15;26.20;93.50
32201;DHT22;18701;45.588;5.288;2023-10-13T16:26:47;25.80;94.20
32201;DHT22;18701;45.588;5.288;2023-10-13T16:29:17;25.50;95.20